Time;durP1;ratioP1;P1;durP2;ratioP2;P2;SDS_P1;SDS_P2;PMS_P1;PMS_P2;Temp;Humidity;BMP_temperature;BMP_pressure;BME280_temperature;BME280_humidity;BME280_pressure;Samples;Min_cycle;Max_cycle;Signal;HPM_P1;HPM_P2
2024/02/24 00:00:03;;;;;;;19.50;15.00;;;;;;;6.31;100.00;97994.30;451510;1252;125961;-60
2024/02/24 00:10:11;;;;;;;18.10;14.70;;;;;;;6.30;100.00;97985.89;451438;1252;139173;-61
2024/02/24 00:20:17;;;;;;;21.80;17.80;;;;;;;6.30;100.00;97967.80;451465;1252;139286;-55
2024/02/24 00:30:25;;;;;;;21.50;17.40;;;;;;;6.29;100.00;97959.52;451316;1252;140375;-54
2024/02/24 00:40:32;;;;;;;22.90;18.00;;;;;;;6.29;100.00;97958.11;451154;1254;139492;-55
2024/02/24 00:50:38;;;;;;;20.90;17.40;;;;;;;6.30;100.00;97942.61;451299;1253;139839;-56
2024/02/24 01:00:44;;;;;;;21.90;16.30;;;;;;;6.29;100.00;97935.21;440893;1254;139457;-54
2024/02/24 01:10:50;;;;;;;22.20;16.60;;;;;;;6.25;100.00;97926.95;451301;1252;140143;-55
2024/02/24 01:20:56;;;;;;;20.60;15.50;;;;;;;6.22;100.00;97915.74;451427;1252;140022;-55
2024/02/24 01:31:02;;;;;;;20.90;15.50;;;;;;;6.20;100.00;97896.46;451259;1253;140300;-56
2024/02/24 01:41:08;;;;;;;16.50;13.90;;;;;;;6.18;100.00;97885.09;451488;1252;139977;-55
2024/02/24 01:51:15;;;;;;;19.10;13.20;;;;;;;6.17;100.00;97869.89;451542;1252;140248;-61
2024/02/24 02:01:22;;;;;;;19.60;12.80;;;;;;;6.15;100.00;97863.05;451461;1252;139641;-62
2024/02/24 02:11:27;;;;;;;16.40;13.20;;;;;;;6.13;100.00;97862.65;451349;1252;140533;-60
2024/02/24 02:21:36;;;;;;;13.50;11.70;;;;;;;6.12;100.00;97850.95;451549;1252;139907;-60
2024/02/24 02:31:44;;;;;;;15.40;12.80;;;;;;;6.12;100.00;97839.50;451529;1252;140321;-62
2024/02/24 02:41:52;;;;;;;15.80;11.20;;;;;;;6.11;100.00;97829.63;451512;1252;139874;-60
2024/02/24 02:52:00;;;;;;;14.20;11.40;;;;;;;6.10;100.00;97816.70;451575;1252;139516;-61
2024/02/24 03:02:06;;;;;;;11.40;9.50;;;;;;;6.09;100.00;97820.06;451571;1252;139393;-60
2024/02/24 03:12:12;;;;;;;10.60;9.50;;;;;;;6.08;100.00;97817.05;451529;1253;139647;-55
2024/02/24 03:22:18;;;;;;;11.50;8.80;;;;;;;6.06;100.00;97822.42;451605;1252;139606;-56
2024/02/24 03:32:24;;;;;;;11.60;9.30;;;;;;;6.05;100.00;97829.58;451666;1253;139508;-55
2024/02/24 03:42:30;;;;;;;11.40;8.90;;;;;;;6.06;100.00;97827.78;451506;1252;139909;-61
2024/02/24 03:52:36;;;;;;;9.90;8.30;;;;;;;6.06;100.00;97823.73;438925;1256;139177;-61
2024/02/24 04:02:44;;;;;;;10.70;8.60;;;;;;;6.11;100.00;97810.33;436904;1255;138120;-55
2024/02/24 04:12:50;;;;;;;9.80;8.70;;;;;;;6.14;100.00;97800.56;436538;1257;139928;-55
2024/02/24 04:22:56;;;;;;;11.50;8.00;;;;;;;6.14;100.00;97798.39;436542;1258;140052;-55
2024/02/24 04:33:02;;;;;;;10.00;8.50;;;;;;;6.16;100.00;97788.64;437708;1257;139455;-57
2024/02/24 04:43:08;;;;;;;10.30;8.60;;;;;;;6.16;100.00;97768.81;436523;1256;139436;-55
2024/02/24 04:53:16;;;;;;;10.40;9.10;;;;;;;6.18;100.00;97758.96;451516;1253;139782;-56
2024/02/24 05:03:22;;;;;;;10.70;9.60;;;;;;;6.21;100.00;97761.80;451410;1254;139523;-62
2024/02/24 05:13:28;;;;;;;10.30;9.20;;;;;;;6.25;100.00;97763.48;451516;1253;139423;-62
2024/02/24 05:23:37;;;;;;;11.00;9.90;;;;;;;6.30;100.00;97772.16;451561;1254;139175;-60
2024/02/24 05:33:46;;;;;;;11.40;10.20;;;;;;;6.36;100.00;97778.50;451560;1253;139712;-61
2024/02/24 05:43:54;;;;;;;13.90;11.10;;;;;;;6.43;100.00;97795.66;443324;1257;140746;-60
2024/02/24 05:54:00;;;;;;;9.20;8.20;;;;;;;6.63;100.00;97797.77;436723;1253;139678;-60
2024/02/24 06:04:06;;;;;;;8.10;7.30;;;;;;;6.88;100.00;97808.76;436884;1257;139913;-60
2024/02/24 06:14:13;;;;;;;11.10;8.60;;;;;;;7.03;100.00;97822.06;436570;1256;139759;-61
2024/02/24 06:24:21;;;;;;;9.70;8.70;;;;;;;7.10;100.00;97831.42;436751;1257;139284;-55
2024/02/24 06:34:27;;;;;;;12.40;9.80;;;;;;;7.16;100.00;97853.23;436705;1257;139767;-55
2024/02/24 06:44:35;;;;;;;9.40;7.80;;;;;;;7.17;100.00;97884.37;447778;1253;5098613;-55
2024/02/24 06:54:43;;;;;;;9.70;8.70;;;;;;;7.15;100.00;97897.02;451633;1256;139271;-56
2024/02/24 07:04:50;;;;;;;10.50;8.30;;;;;;;7.17;100.00;97904.52;451544;1256;139127;-55
2024/02/24 07:14:58;;;;;;;8.80;7.70;;;;;;;7.23;100.00;97922.84;451666;1253;139089;-56
2024/02/24 07:25:04;;;;;;;7.80;7.10;;;;;;;7.30;100.00;97933.48;442578;1254;139098;-56
2024/02/24 07:35:11;;;;;;;7.60;6.80;;;;;;;7.28;100.00;97963.17;436572;1257;139015;-61
2024/02/24 07:45:18;;;;;;;9.80;8.00;;;;;;;7.08;100.00;97990.30;436432;1257;139125;-62
2024/02/24 07:55:24;;;;;;;5.70;5.00;;;;;;;6.90;100.00;98011.64;451504;1252;139361;-54
2024/02/24 08:05:29;;;;;;;6.90;6.20;;;;;;;6.75;100.00;98033.73;451554;1254;140027;-55
2024/02/24 08:15:36;;;;;;;5.70;5.20;;;;;;;6.65;100.00;98049.05;451651;1253;139198;-56
2024/02/24 08:25:42;;;;;;;7.70;5.60;;;;;;;6.46;100.00;98075.50;451578;1254;139231;-56
2024/02/24 08:35:48;;;;;;;3.10;2.80;;;;;;;6.08;100.00;98102.97;451545;1255;140083;-61
2024/02/24 08:45:54;;;;;;;2.80;2.50;;;;;;;5.81;100.00;98106.35;451621;1256;138832;-61
2024/02/24 08:56:02;;;;;;;2.00;1.90;;;;;;;5.62;100.00;98145.77;451541;1255;139865;-55
2024/02/24 09:06:09;;;;;;;2.00;1.90;;;;;;;5.45;100.00;98166.86;451377;1253;139919;-54
2024/02/24 09:16:18;;;;;;;1.60;1.50;;;;;;;5.57;100.00;98193.48;451628;1253;138907;-56
2024/02/24 09:26:24;;;;;;;2.30;2.10;;;;;;;5.90;100.00;98219.00;451531;1254;139844;-56
2024/02/24 09:36:30;;;;;;;3.30;1.70;;;;;;;6.11;100.00;98236.91;451462;1256;139459;-56
2024/02/24 09:46:38;;;;;;;1.20;1.20;;;;;;;6.14;100.00;98261.91;451502;1254;139490;-56
2024/02/24 09:56:46;;;;;;;3.10;1.60;;;;;;;6.23;100.00;98290.98;451666;1253;139009;-56
2024/02/24 10:06:52;;;;;;;1.30;1.20;;;;;;;6.37;100.00;98314.22;451563;1256;139508;-61
2024/02/24 10:17:00;;;;;;;1.80;1.30;;;;;;;6.18;100.00;98343.64;451303;1254;139010;-62
2024/02/24 10:27:08;;;;;;;2.10;1.70;;;;;;;6.04;100.00;98358.78;451185;1254;139344;-68
2024/02/24 10:37:15;;;;;;;2.20;2.00;;;;;;;6.06;100.00;98382.10;451724;1253;71208;-68
2024/02/24 10:47:21;;;;;;;2.40;2.20;;;;;;;6.21;100.00;98394.33;451483;1257;59553;-52
2024/02/24 10:57:28;;;;;;;1.70;1.40;;;;;;;6.47;100.00;98416.47;442020;1256;139177;-50
2024/02/24 11:07:35;;;;;;;1.70;1.60;;;;;;;6.34;100.00;98446.39;437088;1257;139494;-59
2024/02/24 11:17:51;;;;;;;1.90;1.60;;;;;;;6.36;100.00;98470.76;441158;1257;139806;-57
2024/02/24 11:27:59;;;;;;;2.40;2.10;;;;;;;6.36;100.00;98486.38;439417;1254;140880;-58
2024/02/24 11:38:06;;;;;;;2.50;2.20;;;;;;;6.31;100.00;98503.23;437216;1255;139418;-57
2024/02/24 11:48:12;;;;;;;2.50;1.90;;;;;;;6.43;100.00;98518.08;444194;1254;140528;-65
2024/02/24 11:58:37;;;;;;;1.90;1.80;;;;;;;6.52;100.00;98527.28;451932;1254;139484;-64
2024/02/24 12:09:02;;;;;;;6.00;2.60;;;;;;;6.67;100.00;98543.02;451880;1252;139276;-54
2024/02/24 12:19:27;;;;;;;2.40;1.80;;;;;;;7.00;100.00;98551.15;451783;1251;139459;-54
2024/02/24 12:29:54;;;;;;;1.80;1.70;;;;;;;7.61;100.00;98556.82;452070;1254;138918;-55
2024/02/24 12:40:00;;;;;;;2.60;2.10;;;;;;;7.88;100.00;98569.29;451895;1251;139019;-56
2024/02/24 12:50:07;;;;;;;2.60;2.20;;;;;;;7.84;100.00;98587.02;451634;1251;139937;-54
2024/02/24 13:00:15;;;;;;;5.00;3.60;;;;;;;7.82;100.00;98598.10;451251;1254;139980;-54
2024/02/24 13:10:21;;;;;;;3.40;2.20;;;;;;;7.76;100.00;98617.20;451405;1254;140551;-54
2024/02/24 13:20:28;;;;;;;3.70;2.70;;;;;;;7.78;100.00;98630.61;451205;1254;139968;-53
2024/02/24 13:30:34;;;;;;;2.50;1.60;;;;;;;7.80;100.00;98635.15;451417;1254;139992;-57
2024/02/24 13:40:40;;;;;;;2.10;1.90;;;;;;;7.80;100.00;98644.56;451259;1253;139513;-62
2024/02/24 13:50:46;;;;;;;2.20;1.70;;;;;;;8.05;100.00;98648.98;451293;1254;140134;-62
2024/02/24 14:00:52;;;;;;;2.50;1.70;;;;;;;8.32;100.00;98655.00;451423;1254;139629;-65
2024/02/24 14:10:58;;;;;;;4.90;3.70;;;;;;;8.37;100.00;98673.50;451308;1253;140142;-67
2024/02/24 14:21:07;;;;;;;4.20;2.80;;;;;;;8.24;100.00;98706.47;451148;1252;140110;-67
2024/02/24 14:31:13;;;;;;;2.60;1.90;;;;;;;8.14;100.00;98716.36;451301;1254;139620;-68
2024/02/24 14:41:21;;;;;;;5.10;3.10;;;;;;;8.06;100.00;98719.54;451365;1253;139852;-53
2024/02/24 14:51:27;;;;;;;3.70;2.40;;;;;;;7.92;100.00;98737.39;451304;1254;139100;-54
2024/02/24 15:01:33;;;;;;;5.30;3.60;;;;;;;7.78;100.00;98749.48;451199;1253;139122;-52
2024/02/24 15:11:43;;;;;;;4.60;3.70;;;;;;;7.77;100.00;98761.51;451347;1254;140637;-54
2024/02/24 15:21:51;;;;;;;6.30;4.20;;;;;;;7.69;100.00;98777.56;451153;1254;139834;-65
2024/02/24 15:31:57;;;;;;;6.30;5.30;;;;;;;7.45;100.00;98788.86;451189;1254;140056;-66
2024/02/24 15:42:03;;;;;;;11.80;7.30;;;;;;;7.16;100.00;98806.65;451344;1254;138871;-66
2024/02/24 15:52:09;;;;;;;17.70;12.30;;;;;;;6.80;100.00;98810.93;451208;1254;139173;-67
2024/02/24 16:02:16;;;;;;;16.70;10.50;;;;;;;6.42;100.00;98814.37;451216;1254;139629;-66
2024/02/24 16:12:22;;;;;;;14.40;11.10;;;;;;;6.05;100.00;98836.13;451396;1254;139245;-52
2024/02/24 16:22:28;;;;;;;13.20;8.90;;;;;;;5.73;100.00;98848.18;451350;1254;139720;-52
2024/02/24 16:32:34;;;;;;;16.10;10.60;;;;;;;5.46;100.00;98860.42;451195;1254;139837;-54
2024/02/24 16:42:40;;;;;;;13.70;10.00;;;;;;;5.22;100.00;98879.58;451389;1254;140047;-53
2024/02/24 16:52:46;;;;;;;11.80;9.20;;;;;;;4.98;100.00;98884.84;451356;1253;139744;-52
2024/02/24 17:02:53;;;;;;;15.20;11.40;;;;;;;4.76;100.00;98896.36;451152;1253;140039;-63
2024/02/24 17:13:01;;;;;;;23.00;16.00;;;;;;;4.59;100.00;98905.88;451267;1253;139939;-58
2024/02/24 17:23:11;;;;;;;21.40;17.10;;;;;;;4.42;100.00;98919.16;451312;1254;139747;-58
2024/02/24 17:33:18;;;;;;;24.20;19.60;;;;;;;4.26;100.00;98917.67;451083;1254;139398;-58
2024/02/24 17:43:24;;;;;;;21.20;16.20;;;;;;;4.10;100.00;98924.36;451135;1253;141022;-57
2024/02/24 17:53:29;;;;;;;22.70;17.70;;;;;;;3.90;100.00;98929.27;451333;1254;139882;-58
2024/02/24 18:03:35;;;;;;;23.70;17.90;;;;;;;3.73;100.00;98942.16;451101;1253;139924;-59
2024/02/24 18:13:41;;;;;;;21.20;18.30;;;;;;;3.60;100.00;98941.72;451069;1253;140458;-61
2024/02/24 18:23:47;;;;;;;25.80;20.00;;;;;;;3.42;100.00;98955.67;451244;1254;139887;-62
2024/02/24 18:33:55;;;;;;;24.60;19.70;;;;;;;3.27;100.00;98964.67;451236;1254;139688;-62
2024/02/24 18:44:02;;;;;;;24.40;20.20;;;;;;;3.14;100.00;98965.75;447299;1252;5173969;-62
2024/02/24 18:54:08;;;;;;;25.30;19.20;;;;;;;3.01;100.00;98977.16;451264;1254;140051;-57
2024/02/24 19:04:15;;;;;;;32.00;24.10;;;;;;;2.91;100.00;98978.14;451294;1254;140267;-56
2024/02/24 19:14:21;;;;;;;23.40;17.90;;;;;;;2.83;100.00;98975.66;451313;1254;139829;-57
2024/02/24 19:24:27;;;;;;;18.90;16.30;;;;;;;2.83;100.00;98979.66;451488;1254;139880;-59
2024/02/24 19:34:33;;;;;;;22.70;16.40;;;;;;;2.83;100.00;98977.41;451452;1254;139828;-57
2024/02/24 19:44:40;;;;;;;23.20;17.90;;;;;;;2.84;100.00;98974.06;451434;1253;140969;-59
2024/02/24 19:54:48;;;;;;;30.50;22.30;;;;;;;2.86;100.00;98982.82;451414;1254;139287;-59
2024/02/24 20:04:56;;;;;;;23.30;18.80;;;;;;;2.89;100.00;98997.55;451368;1254;141032;-57
2024/02/24 20:15:01;;;;;;;23.50;17.90;;;;;;;2.91;100.00;99005.59;451415;1252;139955;-57
2024/02/24 20:25:08;;;;;;;20.20;17.10;;;;;;;2.91;100.00;99000.23;451348;1254;140428;-56
2024/02/24 20:35:15;;;;;;;23.50;17.30;;;;;;;2.88;100.00;99000.38;451504;1254;139788;-57
2024/02/24 20:45:21;;;;;;;18.60;16.40;;;;;;;2.80;100.00;99002.77;451353;1254;139726;-62
2024/02/24 20:55:27;;;;;;;22.80;17.20;;;;;;;2.72;100.00;99004.84;451447;1254;139408;-62
2024/02/24 21:05:33;;;;;;;21.00;18.20;;;;;;;2.61;100.00;99001.80;451486;1254;139669;-63
2024/02/24 21:15:39;;;;;;;21.20;16.70;;;;;;;2.51;100.00;99013.09;451344;1254;140658;-63
2024/02/24 21:25:45;;;;;;;24.20;20.60;;;;;;;2.45;100.00;99016.11;451274;1254;139849;-64
2024/02/24 21:35:51;;;;;;;25.70;19.70;;;;;;;2.48;100.00;99003.04;451254;1254;139813;-63
2024/02/24 21:45:57;;;;;;;20.50;17.30;;;;;;;2.51;100.00;98998.73;451304;1254;140282;-62
2024/02/24 21:56:06;;;;;;;24.70;19.40;;;;;;;2.50;100.00;98995.35;451319;1254;140586;-64
2024/02/24 22:06:12;;;;;;;23.80;18.40;;;;;;;2.44;100.00;98997.64;451397;1254;140048;-65
2024/02/24 22:16:18;;;;;;;26.90;19.60;;;;;;;2.42;100.00;99005.17;451292;1254;139843;-59
2024/02/24 22:26:27;;;;;;;29.50;21.30;;;;;;;2.41;100.00;99007.63;451196;1254;139989;-60
2024/02/24 22:36:35;;;;;;;27.20;21.80;;;;;;;2.38;100.00;98992.73;451358;1254;139237;-59
2024/02/24 22:46:41;;;;;;;34.20;24.70;;;;;;;2.29;100.00;98994.80;451328;1254;143685;-58
2024/02/24 22:56:47;;;;;;;28.50;23.60;;;;;;;2.20;100.00;99006.02;451275;1254;139395;-60
2024/02/24 23:06:53;;;;;;;28.10;20.40;;;;;;;2.12;100.00;99006.14;451478;1257;140058;-60
2024/02/24 23:16:59;;;;;;;31.90;22.40;;;;;;;2.10;100.00;99020.02;451318;1252;140106;-58
2024/02/24 23:27:05;;;;;;;31.00;21.90;;;;;;;2.08;100.00;99021.67;451321;1253;140469;-57
2024/02/24 23:37:12;;;;;;;23.60;19.10;;;;;;;2.06;100.00;99029.18;450874;1253;140167;-59
2024/02/24 23:47:17;;;;;;;28.10;18.60;;;;;;;2.06;100.00;99031.07;450800;1256;140479;-62
2024/02/24 23:57:25;;;;;;;26.20;18.70;;;;;;;2.07;100.00;99029.13;451091;1255;139874;-61
